Sumifukumaru No.5 — JD3058 — position and weather

sailwx.info

Track history (hours):
 
Tides and Currents Weather Stations Pressure Air Temp Water Temp Dewpoint Dewpoint Depression Visibility Wind Speed Wind Dir Waves Ship Positions

Sumifukumaru No.5

Last reported at 2014-Nov-07 11:33 UTC. Time now 2014-Nov-21 19:21 UTC.
Position N 34°05' E 135°02'.
Warning: this ship's position is 14 days out of date.

Length 75 m; draft 4.4 m.

Type: Cargo ship. MMSI: 431001371.

Date/timePositionNaut miles runAvg speedWind from/ knotsBaromVisibWave heightAir tempDewpointWater temp
2014-Nov-07 11:33N 34°05' E 135°02'1411.5
2014-Nov-07 10:20N 34°19' E 135°05'911.6
2014-Nov-07 09:33N 34°26' E 135°11'1212.0
2014-Nov-07 08:33N 34°36' E 135°21'5 0.3
2014-Nov-06 13:33N 34°39' E 135°25'4 0.4
2014-Nov-06 02:03N 34°35' E 135°27'0 0.0
2014-Nov-06 01:15N 34°35' E 135°27'0 0.1
2014-Nov-06 00:33N 34°35' E 135°27'0 0.0
2014-Nov-05 23:33N 34°35' E 135°27'0 0.0
2014-Nov-05 22:21N 34°35' E 135°27'1 0.1
2014-Nov-05 17:27N 34°34' E 135°27'0 0.0
2014-Nov-05 16:33N 34°34' E 135°27'0 0.0
2014-Nov-05 15:27N 34°34' E 135°27'0 0.0
2014-Nov-05 14:33N 34°34' E 135°27'0 0.0
2014-Nov-05 13:33N 34°34' E 135°27'0 0.0
2014-Nov-05 07:03N 34°34' E 135°27'4 8.2
2014-Nov-05 06:34N 34°36' E 135°23'1111.3
2014-Nov-05 05:33N 34°28' E 135°13'1211.0
2014-Nov-05 04:30N 34°19' E 135°04'5 4.9
2014-Nov-05 03:33N 34°15' E 135°07'0 0.0
2014-Nov-05 02:33N 34°15' E 135°07'0 0.0
2014-Nov-05 01:32N 34°15' E 135°07'0 0.0
2014-Nov-05 00:32N 34°15' E 135°07'0 0.1
2014-Nov-04 23:27N 34°15' E 135°07'0 0.0
2014-Nov-04 22:33N 34°15' E 135°07'0 0.0
2014-Nov-04 21:29N 34°15' E 135°07'0 0.1
2014-Nov-04 20:33N 34°15' E 135°07'0 0.0
2014-Nov-04 19:26N 34°15' E 135°07'0 0.0
2014-Nov-04 18:32N 34°15' E 135°07'0 0.0
2014-Nov-04 17:32N 34°15' E 135°07'0 0.0
2014-Nov-04 16:32N 34°15' E 135°07'0 0.0
2014-Nov-04 15:32N 34°15' E 135°07'0 0.0
2014-Nov-04 14:33N 34°15' E 135°07'6 5.8
2014-Nov-04 13:32N 34°20' E 135°05'1313.5
2014-Nov-04 12:33N 34°30' E 135°15'1111.1
2014-Nov-04 11:33N 34°35' E 135°27'0 0.0
2014-Nov-04 04:04N 34°35' E 135°27'1 1.3
2014-Nov-04 03:33N 34°35' E 135°27'0 0.0
2014-Nov-04 02:33N 34°35' E 135°27'0 0.0
2014-Nov-04 01:27N 34°35' E 135°27'0 0.1
2014-Nov-04 00:33N 34°35' E 135°27'0 0.0
2014-Nov-03 23:33N 34°35' E 135°27'0 0.0
2014-Nov-03 22:33N 34°35' E 135°27'0 0.0
2014-Nov-03 21:27N 34°35' E 135°27'0 0.0
2014-Nov-03 20:33N 34°35' E 135°27'0 0.0
2014-Nov-03 19:33N 34°35' E 135°27'0 0.0
2014-Nov-03 18:51N 34°35' E 135°27'0 0.0
2014-Nov-03 18:33N 34°35' E 135°27'0 0.0
2014-Nov-03 18:09N 34°35' E 135°27'0 0.0
2014-Nov-03 17:45N 34°35' E 135°27'0 0.0
2014-Nov-03 17:33N 34°35' E 135°27'0 0.0
2014-Nov-03 16:33N 34°35' E 135°27'0 0.0
2014-Nov-03 14:27N 34°35' E 135°27'0 0.0
2014-Nov-03 13:33N 34°35' E 135°27'6 6.4
2014-Nov-03 12:33N 34°34' E 135°19'1111.0
2014-Nov-03 11:33N 34°25' E 135°10'1110.8
2014-Nov-03 10:30N 34°16' E 135°03'4 4.0
2014-Nov-03 09:33N 34°15' E 135°07'0 0.0
2014-Nov-03 08:31N 34°15' E 135°07'0 0.0
2014-Nov-03 07:31N 34°15' E 135°07'0 0.0
2014-Nov-03 06:28N 34°15' E 135°07'0 0.0
2014-Nov-03 05:28N 34°15' E 135°07'0 0.1
2014-Nov-03 04:31N 34°15' E 135°07'0 0.0
2014-Nov-03 03:31N 34°15' E 135°07'0 0.0
2014-Nov-03 02:31N 34°15' E 135°07'0 0.0
2014-Nov-03 01:31N 34°15' E 135°07'0 0.0
2014-Nov-03 00:34N 34°15' E 135°07'1 0.5
2014-Nov-02 23:31N 34°14' E 135°07'0 0.0
2014-Nov-02 22:31N 34°14' E 135°07'0 0.0
2014-Nov-02 21:31N 34°14' E 135°07'0 0.0
2014-Nov-02 20:28N 34°14' E 135°07'0 0.0
2014-Nov-02 19:31N 34°14' E 135°07'0 0.0
2014-Nov-02 18:31N 34°14' E 135°07'0 0.0
2014-Nov-02 17:31N 34°14' E 135°07'0 0.0
2014-Nov-02 16:31N 34°14' E 135°07'0 0.0
2014-Nov-02 15:31N 34°14' E 135°07'0 0.0
2014-Nov-02 14:31N 34°14' E 135°07'0 0.0
2014-Nov-02 13:25N 34°14' E 135°07'0 0.0
2014-Nov-02 12:31N 34°14' E 135°07'0 0.0
2014-Nov-02 11:28N 34°14' E 135°07'0 0.0
2014-Nov-02 10:31N 34°15' E 135°07'0 0.0
2014-Nov-02 09:31N 34°14' E 135°07'0 0.0
2014-Nov-02 08:31N 34°14' E 135°07'0 0.0
2014-Nov-02 07:31N 34°14' E 135°07'0 0.0
2014-Nov-02 06:31N 34°14' E 135°07'0 0.0
2014-Nov-02 05:31N 34°14' E 135°07'0 0.0
2014-Nov-02 04:31N 34°14' E 135°07'0 0.0
2014-Nov-02 03:31N 34°14' E 135°07'0 0.1
2014-Nov-02 02:31N 34°15' E 135°06'0 0.0
2014-Nov-02 01:31N 34°15' E 135°06'0 0.1
2014-Nov-02 00:31N 34°15' E 135°06'0 0.0
2014-Nov-01 23:31N 34°15' E 135°06'  
Track history (hours):
 
Tides and Currents Weather Stations Pressure Air Temp Water Temp Dewpoint Dewpoint Depression Visibility Wind Speed Wind Dir Waves Ship Positions

Sumifukumaru No.5

Last reported at 2014-Nov-07 11:33 UTC. Time now 2014-Nov-21 19:21 UTC.
Position N 34°05' E 135°02'.
Warning: this ship's position is 14 days out of date.

Length 75 m; draft 4.4 m.

Type: Cargo ship. MMSI: 431001371.

Date/timePositionNaut miles runAvg speedWind from/ knotsBaromVisibWave heightAir tempDewpointWater temp
2014-Nov-07 11:33N 34°05' E 135°02'1411.5
2014-Nov-07 10:20N 34°19' E 135°05'911.6
2014-Nov-07 09:33N 34°26' E 135°11'1212.0
2014-Nov-07 08:33N 34°36' E 135°21'5 0.3
2014-Nov-06 13:33N 34°39' E 135°25'4 0.4
2014-Nov-06 02:03N 34°35' E 135°27'0 0.0
2014-Nov-06 01:15N 34°35' E 135°27'0 0.1
2014-Nov-06 00:33N 34°35' E 135°27'0 0.0
2014-Nov-05 23:33N 34°35' E 135°27'0 0.0
2014-Nov-05 22:21N 34°35' E 135°27'1 0.1
2014-Nov-05 17:27N 34°34' E 135°27'0 0.0
2014-Nov-05 16:33N 34°34' E 135°27'0 0.0
2014-Nov-05 15:27N 34°34' E 135°27'0 0.0
2014-Nov-05 14:33N 34°34' E 135°27'0 0.0
2014-Nov-05 13:33N 34°34' E 135°27'0 0.0
2014-Nov-05 07:03N 34°34' E 135°27'4 8.2
2014-Nov-05 06:34N 34°36' E 135°23'1111.3
2014-Nov-05 05:33N 34°28' E 135°13'1211.0
2014-Nov-05 04:30N 34°19' E 135°04'5 4.9
2014-Nov-05 03:33N 34°15' E 135°07'0 0.0
2014-Nov-05 02:33N 34°15' E 135°07'0 0.0
2014-Nov-05 01:32N 34°15' E 135°07'0 0.0
2014-Nov-05 00:32N 34°15' E 135°07'0 0.1
2014-Nov-04 23:27N 34°15' E 135°07'0 0.0
2014-Nov-04 22:33N 34°15' E 135°07'0 0.0
2014-Nov-04 21:29N 34°15' E 135°07'0 0.1
2014-Nov-04 20:33N 34°15' E 135°07'0 0.0
2014-Nov-04 19:26N 34°15' E 135°07'0 0.0
2014-Nov-04 18:32N 34°15' E 135°07'0 0.0
2014-Nov-04 17:32N 34°15' E 135°07'0 0.0
2014-Nov-04 16:32N 34°15' E 135°07'0 0.0
2014-Nov-04 15:32N 34°15' E 135°07'0 0.0
2014-Nov-04 14:33N 34°15' E 135°07'6 5.8
2014-Nov-04 13:32N 34°20' E 135°05'1313.5
2014-Nov-04 12:33N 34°30' E 135°15'1111.1
2014-Nov-04 11:33N 34°35' E 135°27'0 0.0
2014-Nov-04 04:04N 34°35' E 135°27'1 1.3
2014-Nov-04 03:33N 34°35' E 135°27'0 0.0
2014-Nov-04 02:33N 34°35' E 135°27'0 0.0
2014-Nov-04 01:27N 34°35' E 135°27'0 0.1
2014-Nov-04 00:33N 34°35' E 135°27'0 0.0
2014-Nov-03 23:33N 34°35' E 135°27'0 0.0
2014-Nov-03 22:33N 34°35' E 135°27'0 0.0
2014-Nov-03 21:27N 34°35' E 135°27'0 0.0
2014-Nov-03 20:33N 34°35' E 135°27'0 0.0
2014-Nov-03 19:33N 34°35' E 135°27'0 0.0
2014-Nov-03 18:51N 34°35' E 135°27'0 0.0
2014-Nov-03 18:33N 34°35' E 135°27'0 0.0
2014-Nov-03 18:09N 34°35' E 135°27'0 0.0
2014-Nov-03 17:45N 34°35' E 135°27'0 0.0
2014-Nov-03 17:33N 34°35' E 135°27'0 0.0
2014-Nov-03 16:33N 34°35' E 135°27'0 0.0
2014-Nov-03 14:27N 34°35' E 135°27'0 0.0
2014-Nov-03 13:33N 34°35' E 135°27'6 6.4
2014-Nov-03 12:33N 34°34' E 135°19'1111.0
2014-Nov-03 11:33N 34°25' E 135°10'1110.8
2014-Nov-03 10:30N 34°16' E 135°03'4 4.0
2014-Nov-03 09:33N 34°15' E 135°07'0 0.0
2014-Nov-03 08:31N 34°15' E 135°07'0 0.0
2014-Nov-03 07:31N 34°15' E 135°07'0 0.0
2014-Nov-03 06:28N 34°15' E 135°07'0 0.0
2014-Nov-03 05:28N 34°15' E 135°07'0 0.1
2014-Nov-03 04:31N 34°15' E 135°07'0 0.0
2014-Nov-03 03:31N 34°15' E 135°07'0 0.0
2014-Nov-03 02:31N 34°15' E 135°07'0 0.0
2014-Nov-03 01:31N 34°15' E 135°07'0 0.0
2014-Nov-03 00:34N 34°15' E 135°07'1 0.5
2014-Nov-02 23:31N 34°14' E 135°07'0 0.0
2014-Nov-02 22:31N 34°14' E 135°07'0 0.0
2014-Nov-02 21:31N 34°14' E 135°07'0 0.0
2014-Nov-02 20:28N 34°14' E 135°07'0 0.0
2014-Nov-02 19:31N 34°14' E 135°07'0 0.0
2014-Nov-02 18:31N 34°14' E 135°07'0 0.0
2014-Nov-02 17:31N 34°14' E 135°07'0 0.0
2014-Nov-02 16:31N 34°14' E 135°07'0 0.0
2014-Nov-02 15:31N 34°14' E 135°07'0 0.0
2014-Nov-02 14:31N 34°14' E 135°07'0 0.0
2014-Nov-02 13:25N 34°14' E 135°07'0 0.0
2014-Nov-02 12:31N 34°14' E 135°07'0 0.0
2014-Nov-02 11:28N 34°14' E 135°07'0 0.0
2014-Nov-02 10:31N 34°15' E 135°07'0 0.0
2014-Nov-02 09:31N 34°14' E 135°07'0 0.0
2014-Nov-02 08:31N 34°14' E 135°07'0 0.0
2014-Nov-02 07:31N 34°14' E 135°07'0 0.0
2014-Nov-02 06:31N 34°14' E 135°07'0 0.0
2014-Nov-02 05:31N 34°14' E 135°07'0 0.0
2014-Nov-02 04:31N 34°14' E 135°07'0 0.0
2014-Nov-02 03:31N 34°14' E 135°07'0 0.1
2014-Nov-02 02:31N 34°15' E 135°06'0 0.0
2014-Nov-02 01:31N 34°15' E 135°06'0 0.1
2014-Nov-02 00:31N 34°15' E 135°06'0 0.0
2014-Nov-01 23:31N 34°15' E 135°06'  

Dump ship's entire track history